»·PEaware :: UAL5058 KDEN-KPRC

UAL5058 :: KDEN-KPRC

FLIGHT INFORMATION

Flight Status: Arrived
Operator:
United Airlines
More flights by this operator :: More flights under this callsign
Pilot: Anonymous 33184 (33184)
Aircraft: CANADAIR CL-600 CRJ-700
(CRJ7)
More flights by this aircraft type
Origin: KDEN Denver Intl
United States
Destination: KPRC Love
United States
More flights between these airports :: More routes between these airports
Route: BAYLR6 TEHRU JASSE DRK
File this flight plan on PilotEdge
Remarks: KPRC is P3D default scenery
Altitude:
(Current/Filed)
32,000ft
Speed:
(Current/Filed)
467kts
Departed: 13-Jul-23 11:41 AM
Arrived: 13-Jul-23 01:03 PM
Distance/Time
Traveled:
484nm/1:22
Distance/Time
To Go:
Arrived

Flight Plot

Page will automatically refresh every two minutes.

Flight plan parsing failed; only flown route is shown


Map Options




Map Legend


Flown Route
Filed Route
Departure Airport
Arrival Airport
Navaid (VOR, NDB)
Fix

Horizontal Profiles

Position Reports

Time Latitude Longitude Heading Altitude Ground
Speed
13-Jul-23 10:47 39.859416 -104.669120 180 5441ft 0kts
13-Jul-23 10:48 39.859416 -104.669120 180 5441ft 0kts
13-Jul-23 10:49 39.859416 -104.669120 180 5441ft 0kts
13-Jul-23 10:50 39.859416 -104.669120 180 5441ft 0kts
13-Jul-23 10:51 39.859416 -104.669120 180 5441ft 0kts
13-Jul-23 10:52 39.859416 -104.669120 180 5441ft 0kts
13-Jul-23 10:53 39.859416 -104.669120 180 5441ft 0kts
13-Jul-23 10:54 39.859416 -104.669120 180 5441ft 0kts
13-Jul-23 10:55 39.859416 -104.669120 180 5441ft 0kts
13-Jul-23 10:56 39.859416 -104.669120 180 5441ft 0kts
13-Jul-23 10:57 39.859416 -104.669120 180 5441ft 0kts
13-Jul-23 10:58 39.859416 -104.669120 180 5441ft 0kts
13-Jul-23 10:59 39.859416 -104.669120 180 5441ft 0kts
13-Jul-23 11:00 39.859416 -104.669120 180 5441ft 0kts
13-Jul-23 11:01 39.859416 -104.669120 180 5441ft 0kts
13-Jul-23 11:02 39.859416 -104.669120 180 5441ft 0kts
13-Jul-23 11:03 39.859416 -104.669120 180 5441ft 0kts
13-Jul-23 11:04 39.859416 -104.669120 180 5441ft 0kts
13-Jul-23 11:05 39.859416 -104.669120 180 5441ft 0kts
13-Jul-23 11:06 39.859416 -104.669120 180 5441ft 0kts
13-Jul-23 11:07 39.859416 -104.669120 180 5441ft 0kts
13-Jul-23 11:08 39.859416 -104.669120 180 5441ft 0kts
13-Jul-23 11:09 39.859416 -104.669120 180 5441ft 0kts
13-Jul-23 11:10 39.859416 -104.669120 180 5441ft 0kts
13-Jul-23 11:11 39.859416 -104.669120 180 5441ft 0kts
13-Jul-23 11:12 39.859416 -104.669120 180 5441ft 0kts
13-Jul-23 11:13 39.859416 -104.669120 180 5441ft 0kts
13-Jul-23 11:14 39.859416 -104.669120 180 5441ft 0kts
13-Jul-23 11:15 39.859416 -104.669120 180 5441ft 0kts
13-Jul-23 11:16 39.859416 -104.669120 180 5441ft 0kts
13-Jul-23 11:17 39.859416 -104.669120 180 5441ft 0kts
13-Jul-23 11:18 39.859416 -104.669120 180 5441ft 0kts
13-Jul-23 11:19 39.859416 -104.669120 180 5441ft 0kts
13-Jul-23 11:20 39.859416 -104.669120 180 5441ft 0kts
13-Jul-23 11:21 39.859416 -104.669120 180 5441ft 0kts
13-Jul-23 11:22 39.859416 -104.669120 180 5441ft 0kts
13-Jul-23 11:23 39.859564 -104.669120 180 5441ft 2kts
13-Jul-23 11:24 39.860376 -104.669117 180 5441ft 2kts
13-Jul-23 11:25 39.860767 -104.669116 180 5441ft 0kts
13-Jul-23 11:26 39.860766 -104.669116 180 5441ft 0kts
13-Jul-23 11:27 39.860765 -104.669116 180 5441ft 0kts
13-Jul-23 11:28 39.860763 -104.669116 180 5441ft 0kts
13-Jul-23 11:29 39.860732 -104.669129 206 5441ft 0kts
13-Jul-23 11:30 39.860686 -104.672260 270 5441ft 17kts
13-Jul-23 11:31 39.860727 -104.677506 271 5441ft 13kts
13-Jul-23 11:32 39.860702 -104.681211 239 5441ft 0kts
13-Jul-23 11:33 39.860354 -104.683030 270 5441ft 0kts
13-Jul-23 11:34 39.856413 -104.683965 181 5441ft 21kts
13-Jul-23 11:35 39.851876 -104.684599 286 5441ft 12kts
13-Jul-23 11:36 39.852051 -104.689423 271 5441ft 6kts
13-Jul-23 11:37 39.852045 -104.694419 270 5441ft 14kts
13-Jul-23 11:38 39.852044 -104.694867 270 5441ft 0kts
13-Jul-23 11:39 39.852286 -104.696604 2 5441ft 0kts
13-Jul-23 11:40 39.871163 -104.696403 1 5463ft 172kts
13-Jul-23 11:41 39.911141 -104.726457 263 7307ft 237kts
13-Jul-23 11:42 39.855956 -104.759666 192 9350ft 243kts
13-Jul-23 11:43 39.813338 -104.832876 251 10139ft 318kts
13-Jul-23 11:44 39.768623 -104.928772 244 14088ft 294kts
13-Jul-23 11:46 39.751913 -105.029933 263 17215ft 289kts
13-Jul-23 11:47 39.714515 -105.123512 251 19936ft 287kts
13-Jul-23 11:48 39.687704 -105.222226 252 22023ft 297kts
13-Jul-23 11:49 39.660276 -105.324580 253 24100ft 303kts
13-Jul-23 11:50 39.632283 -105.429204 253 26003ft 309kts
13-Jul-23 11:51 39.603871 -105.535569 254 27742ft 315kts
13-Jul-23 11:52 39.575037 -105.643741 254 29327ft 320kts
13-Jul-23 11:53 39.545782 -105.753764 254 30787ft 326kts
13-Jul-23 11:54 39.516127 -105.865628 254 32149ft 330kts
13-Jul-23 11:55 39.485635 -105.981447 254 32736ft 356kts
13-Jul-23 11:56 39.436249 -106.100950 236 32751ft 407kts
13-Jul-23 11:57 39.378888 -106.232340 254 32710ft 435kts
13-Jul-23 11:58 39.340181 -106.383354 253 32577ft 441kts
13-Jul-23 11:59 39.297586 -106.528941 252 32519ft 429kts
13-Jul-23 12:00 39.255769 -106.672217 252 32441ft 425kts
13-Jul-23 12:01 39.196448 -106.805846 236 32377ft 439kts
13-Jul-23 12:02 39.120618 -106.929998 236 32367ft 443kts
13-Jul-23 12:03 39.047329 -107.057670 237 32401ft 443kts
13-Jul-23 12:04 38.973339 -107.186451 237 32419ft 444kts
13-Jul-23 12:05 38.899113 -107.313429 237 32412ft 445kts
13-Jul-23 12:05 38.836921 -107.419352 236 32378ft 447kts
13-Jul-23 12:06 38.761824 -107.546785 236 32308ft 448kts
13-Jul-23 12:07 38.686457 -107.674182 236 32241ft 449kts
13-Jul-23 12:09 38.598459 -107.822279 236 32218ft 449kts
13-Jul-23 12:09 38.535277 -107.928233 236 32220ft 450kts
13-Jul-23 12:10 38.459313 -108.055102 235 32225ft 450kts
13-Jul-23 12:11 38.383168 -108.181805 235 32263ft 450kts
13-Jul-23 12:12 38.306843 -108.308293 235 32300ft 450kts
13-Jul-23 12:13 38.231949 -108.431983 235 32324ft 450kts
13-Jul-23 12:14 38.153929 -108.560291 235 32366ft 450kts
13-Jul-23 12:15 38.077123 -108.686120 235 32387ft 450kts
13-Jul-23 12:16 38.000162 -108.811715 235 32287ft 452kts
13-Jul-23 12:17 37.922944 -108.937294 235 32315ft 453kts
13-Jul-23 12:18 37.845231 -109.063158 234 32320ft 454kts
13-Jul-23 12:19 37.767114 -109.189118 234 32312ft 454kts
13-Jul-23 12:20 37.689128 -109.314475 234 32282ft 455kts
13-Jul-23 12:21 37.610643 -109.440198 234 32239ft 455kts
13-Jul-23 12:22 37.532254 -109.565222 234 32232ft 455kts
13-Jul-23 12:23 37.455118 -109.687802 234 32229ft 456kts
13-Jul-23 12:24 37.374704 -109.815090 234 32222ft 456kts
13-Jul-23 12:25 37.295733 -109.939647 234 32211ft 456kts
13-Jul-23 12:26 37.216266 -110.064447 233 32200ft 457kts
13-Jul-23 12:27 37.136748 -110.188971 233 32193ft 458kts
13-Jul-23 12:28 37.056820 -110.313622 233 32182ft 459kts
13-Jul-23 12:29 36.976782 -110.437977 233 32171ft 460kts
13-Jul-23 12:30 36.896257 -110.562616 233 32175ft 460kts
13-Jul-23 12:31 36.815814 -110.686671 232 32178ft 461kts
13-Jul-23 12:32 36.734660 -110.811340 232 32160ft 462kts
13-Jul-23 12:33 36.653544 -110.935496 232 32156ft 463kts
13-Jul-23 12:34 36.572045 -111.059800 232 32156ft 463kts
13-Jul-23 12:35 36.490355 -111.183900 232 32156ft 464kts
13-Jul-23 12:36 36.408334 -111.308090 232 32172ft 464kts
13-Jul-23 12:37 36.326227 -111.431872 232 32197ft 465kts
13-Jul-23 12:38 36.243888 -111.555658 231 32231ft 466kts
13-Jul-23 12:39 36.161334 -111.679213 231 32267ft 466kts
13-Jul-23 12:40 36.075332 -111.799037 217 32309ft 469kts
13-Jul-23 12:41 35.958626 -111.872248 204 32332ft 473kts
13-Jul-23 12:42 35.835071 -111.928868 203 32341ft 475kts
13-Jul-23 12:43 35.712098 -111.989569 204 32342ft 475kts
13-Jul-23 12:44 35.592493 -112.049225 204 31263ft 456kts
13-Jul-23 12:45 35.476007 -112.106927 203 29739ft 448kts
13-Jul-23 12:46 35.360925 -112.163100 203 28459ft 440kts
13-Jul-23 12:47 35.249285 -112.217268 203 27515ft 428kts
13-Jul-23 12:48 35.139368 -112.270351 202 26516ft 420kts
13-Jul-23 12:49 35.033553 -112.321163 202 25638ft 399kts
13-Jul-23 12:50 34.928924 -112.371566 202 22685ft 407kts
13-Jul-23 12:51 34.829984 -112.419190 202 19664ft 369kts
13-Jul-23 12:52 34.734932 -112.464834 202 15536ft 357kts
13-Jul-23 12:53 34.643195 -112.483690 151 11804ft 344kts
13-Jul-23 12:54 34.586945 -112.394477 100 9477ft 312kts
13-Jul-23 12:55 34.628819 -112.321485 39 9476ft 252kts
13-Jul-23 12:56 34.680013 -112.267867 40 8864ft 242kts
13-Jul-23 12:57 34.733363 -112.252914 314 8544ft 199kts
13-Jul-23 12:58 34.758273 -112.306504 276 7468ft 176kts
13-Jul-23 12:59 34.729200 -112.340574 221 6686ft 143kts
13-Jul-23 13:00 34.698620 -112.372220 222 6468ft 153kts
13-Jul-23 13:01 34.667444 -112.405613 222 5238ft 136kts
13-Jul-23 13:02 34.649990 -112.424262 220 5052ft 13kts
13-Jul-23 13:03 34.649589 -112.425684 315 5052ft 0kts
13-Jul-23 13:04 34.649591 -112.425686 315 5052ft 0kts
13-Jul-23 13:05 34.650362 -112.426565 315 5052ft 6kts
13-Jul-23 13:06 34.650182 -112.427240 221 5052ft 1kts
13-Jul-23 13:07 34.650164 -112.427259 221 5052ft 0kts
13-Jul-23 13:08 34.650164 -112.427259 221 5052ft 0kts
13-Jul-23 13:09 34.650164 -112.427259 221 5052ft 0kts
13-Jul-23 13:10 34.650164 -112.427259 221 5052ft 0kts

Navigation Log

Ident Type
Flight plan parsing failed, navigation log unavailable